createdAt,value
2022-12-18T00:02:05.158Z,94.28
2022-12-18T00:05:13.764Z,94.30
2022-12-18T00:08:28.136Z,94.51
2022-12-18T00:11:38.141Z,94.47
2022-12-18T00:14:53.396Z,94.35
2022-12-18T00:18:08.127Z,94.23
2022-12-18T00:21:12.682Z,94.93
2022-12-18T00:24:27.117Z,94.87
2022-12-18T00:27:45.123Z,94.37
2022-12-18T00:31:11.154Z,94.18
2022-12-18T00:34:13.972Z,93.94
2022-12-18T00:37:29.123Z,94.49
2022-12-18T00:40:45.106Z,94.32
2022-12-18T00:44:00.121Z,93.97
2022-12-18T00:47:15.098Z,94.30
2022-12-18T00:50:17.970Z,94.20
2022-12-18T00:53:33.105Z,94.29
2022-12-18T00:56:51.004Z,94.67
2022-12-18T01:00:06.130Z,94.55
2022-12-18T01:03:08.649Z,94.28
2022-12-18T01:06:24.094Z,94.48
2022-12-18T01:09:39.093Z,95.11
2022-12-18T01:13:01.080Z,95.32
2022-12-18T01:16:19.161Z,95.40
2022-12-18T01:19:34.082Z,95.20
2022-12-18T01:22:49.144Z,95.22
2022-12-18T01:26:04.097Z,96.26
2022-12-18T01:29:06.079Z,97.16
2022-12-18T01:32:21.086Z,96.83
2022-12-18T01:35:36.115Z,95.84
2022-12-18T01:38:51.129Z,95.03
2022-12-18T01:42:00.118Z,95.66
2022-12-18T01:45:21.111Z,96.79
2022-12-18T01:48:23.152Z,96.66
2022-12-18T01:51:38.107Z,96.94
2022-12-18T01:54:40.152Z,95.69
2022-12-18T01:57:57.119Z,96.31
2022-12-18T02:01:06.090Z,96.16
2022-12-18T02:04:35.103Z,95.13
2022-12-18T02:08:16.103Z,94.76
2022-12-18T02:11:54.085Z,94.64
2022-12-18T02:15:16.524Z,94.61
2022-12-18T02:18:40.083Z,94.36
2022-12-18T02:22:26.303Z,95.49
2022-12-18T02:26:00.097Z,96.88
2022-12-18T02:29:14.083Z,97.10
2022-12-18T02:32:37.064Z,96.89
2022-12-18T02:35:53.133Z,96.11
2022-12-18T02:39:03.112Z,96.07
2022-12-18T02:42:12.947Z,96.41
2022-12-18T02:45:28.141Z,96.82
2022-12-18T02:48:34.889Z,96.92
2022-12-18T02:51:58.087Z,96.76
2022-12-18T02:55:34.785Z,97.49
2022-12-18T02:59:10.091Z,97.94
2022-12-18T03:02:42.269Z,98.42
2022-12-18T03:05:52.836Z,98.49
2022-12-18T03:09:14.076Z,98.67
2022-12-18T03:12:31.778Z,98.30
2022-12-18T03:15:58.090Z,98.14
2022-12-18T03:19:12.064Z,97.94
2022-12-18T03:22:23.218Z,98.13
2022-12-18T03:25:35.121Z,98.51
2022-12-18T03:28:48.360Z,98.71
2022-12-18T03:32:06.091Z,99.25
2022-12-18T03:35:28.091Z,99.05
2022-12-18T03:38:37.070Z,99.00
2022-12-18T03:41:59.069Z,98.65
2022-12-18T03:45:53.190Z,98.24
2022-12-18T03:49:13.210Z,98.58
2022-12-18T03:52:33.080Z,98.58
2022-12-18T03:55:43.194Z,98.71
2022-12-18T03:58:53.084Z,98.72
2022-12-18T04:02:11.156Z,98.47
2022-12-18T04:05:27.072Z,98.62
2022-12-18T04:08:30.089Z,98.45
2022-12-18T04:11:45.067Z,99.24
2022-12-18T04:15:00.079Z,100.00
2022-12-18T04:18:08.999Z,100.00
2022-12-18T04:21:18.062Z,100.00
2022-12-18T04:24:33.055Z,100.00
2022-12-18T04:27:48.062Z,100.00
2022-12-18T04:30:50.703Z,100.00
2022-12-18T04:34:06.061Z,100.00
2022-12-18T04:37:14.070Z,100.00
2022-12-18T04:40:22.838Z,100.00
2022-12-18T04:43:38.227Z,100.00
2022-12-18T04:46:53.106Z,100.00
2022-12-18T04:49:55.294Z,100.00
2022-12-18T04:53:10.088Z,100.00
2022-12-18T04:56:18.813Z,100.00
2022-12-18T04:59:27.069Z,100.00
2022-12-18T05:02:35.810Z,100.00
2022-12-18T05:05:44.058Z,100.00
2022-12-18T05:08:52.712Z,100.00
2022-12-18T05:12:01.088Z,100.00
2022-12-18T05:15:23.062Z,100.00
2022-12-18T05:18:25.855Z,100.00
2022-12-18T05:21:41.054Z,100.00
2022-12-18T05:24:56.052Z,100.00
2022-12-18T05:28:04.054Z,100.00
2022-12-18T05:31:19.094Z,100.00
2022-12-18T05:34:27.653Z,100.00
2022-12-18T05:37:43.382Z,100.00
2022-12-18T05:40:53.072Z,100.00
2022-12-18T05:44:02.038Z,100.00
2022-12-18T05:47:17.079Z,100.00
2022-12-18T05:50:25.749Z,100.00
2022-12-18T05:53:42.393Z,100.00
2022-12-18T05:56:51.679Z,100.00
2022-12-18T06:00:06.025Z,100.00
2022-12-18T06:03:16.159Z,100.00
2022-12-18T06:06:34.022Z,100.00
2022-12-18T06:09:42.088Z,100.00
2022-12-18T06:12:50.667Z,100.00
2022-12-18T06:16:13.088Z,100.00
2022-12-18T06:19:21.683Z,100.00
2022-12-18T06:22:30.038Z,100.00
2022-12-18T06:25:47.037Z,100.00
2022-12-18T06:28:55.975Z,100.00
2022-12-18T06:32:05.046Z,100.00
2022-12-18T06:35:20.060Z,100.00
2022-12-18T06:38:36.105Z,100.00
2022-12-18T06:41:38.245Z,100.00
2022-12-18T06:44:54.048Z,100.00
2022-12-18T06:48:09.075Z,100.00
2022-12-18T06:51:30.031Z,100.00
2022-12-18T06:54:52.075Z,100.00
2022-12-18T06:58:01.028Z,100.00
2022-12-18T07:01:12.135Z,100.00
2022-12-18T07:04:27.038Z,100.00
2022-12-18T07:07:28.912Z,100.00
2022-12-18T07:10:55.953Z,100.00
2022-12-18T07:14:11.366Z,100.00
2022-12-18T07:17:26.031Z,100.00
2022-12-18T07:20:34.766Z,100.00
2022-12-18T07:23:44.030Z,100.00
2022-12-18T07:26:59.052Z,100.00
2022-12-18T07:30:00.947Z,100.00
2022-12-18T07:33:16.021Z,100.00
2022-12-18T07:36:24.622Z,100.00
2022-12-18T07:39:39.017Z,100.00
2022-12-18T07:42:54.041Z,100.00
2022-12-18T07:46:03.370Z,100.00
2022-12-18T07:49:18.033Z,100.00
2022-12-18T07:52:33.022Z,100.00
2022-12-18T07:56:24.886Z,100.00
2022-12-18T07:59:12.909Z,100.00
2022-12-18T08:02:28.089Z,100.00
2022-12-18T08:05:37.024Z,100.00
2022-12-18T08:08:45.755Z,100.00
2022-12-18T08:12:01.020Z,100.00
2022-12-18T08:15:03.357Z,100.00
2022-12-18T08:18:26.017Z,100.00
2022-12-18T08:21:37.125Z,99.13
2022-12-18T08:24:46.241Z,99.01
2022-12-18T08:28:01.028Z,98.37
2022-12-18T08:31:10.148Z,97.63
2022-12-18T08:34:25.020Z,98.00
2022-12-18T08:37:40.033Z,96.63
2022-12-18T08:40:42.218Z,95.79
2022-12-18T08:43:57.015Z,96.27
2022-12-18T08:47:14.038Z,95.73
2022-12-18T08:50:29.004Z,94.93
2022-12-18T08:53:45.041Z,93.69
2022-12-18T08:56:54.008Z,93.73
2022-12-18T09:00:04.116Z,93.54
2022-12-18T09:03:13.047Z,92.00
2022-12-18T09:06:30.013Z,91.54
2022-12-18T09:09:40.379Z,91.25
2022-12-18T09:12:52.007Z,91.61
2022-12-18T09:16:14.015Z,90.75
2022-12-18T09:19:22.729Z,89.27
2022-12-18T09:22:31.015Z,88.07
2022-12-18T09:25:46.018Z,87.63
2022-12-18T09:29:02.023Z,87.06
2022-12-18T09:32:22.202Z,86.06
2022-12-18T09:35:24.422Z,85.87
2022-12-18T09:38:39.279Z,84.79
2022-12-18T09:42:04.045Z,84.15
2022-12-18T09:45:16.052Z,82.01
2022-12-18T09:48:39.373Z,81.96
2022-12-18T09:52:00.090Z,81.35
2022-12-18T09:55:37.163Z,80.87
2022-12-18T09:59:02.014Z,80.84
2022-12-18T10:02:34.077Z,78.93
2022-12-18T10:05:42.509Z,79.89
2022-12-18T10:08:56.991Z,79.32
2022-12-18T10:12:22.000Z,77.89
2022-12-18T10:15:53.384Z,77.35
2022-12-18T10:19:11.032Z,76.88
2022-12-18T10:22:51.023Z,77.38
2022-12-18T10:26:09.989Z,77.54
2022-12-18T10:29:26.028Z,78.28
2022-12-18T10:32:34.677Z,77.44
2022-12-18T10:35:44.031Z,76.97
2022-12-18T10:38:58.993Z,77.29
2022-12-18T10:42:25.995Z,77.44
2022-12-18T10:45:35.025Z,77.71
2022-12-18T10:48:56.014Z,77.55
2022-12-18T10:52:07.157Z,79.11
2022-12-18T10:55:24.987Z,78.83
2022-12-18T10:58:37.983Z,78.52
2022-12-18T11:01:50.260Z,79.50
2022-12-18T11:05:09.592Z,79.09
2022-12-18T11:08:22.333Z,79.92
2022-12-18T11:11:38.989Z,78.63
2022-12-18T11:14:51.331Z,78.97
2022-12-18T11:18:13.717Z,79.85
2022-12-18T11:21:16.469Z,79.96
2022-12-18T11:24:37.980Z,80.55
2022-12-18T11:27:41.174Z,80.39
2022-12-18T11:30:56.056Z,80.64
2022-12-18T11:34:29.997Z,79.42
2022-12-18T11:37:48.975Z,78.92
2022-12-18T11:41:11.013Z,78.98
2022-12-18T11:44:22.985Z,78.97
2022-12-18T11:48:12.008Z,78.24
2022-12-18T11:51:42.986Z,79.01
2022-12-18T11:54:50.986Z,78.56
2022-12-18T11:58:46.987Z,77.86
2022-12-18T12:02:03.069Z,76.92
2022-12-18T12:05:19.708Z,77.17
2022-12-18T12:09:01.988Z,75.55
2022-12-18T12:12:35.979Z,74.51
2022-12-18T12:16:08.006Z,74.65
2022-12-18T12:19:44.976Z,74.69
2022-12-18T12:23:07.717Z,75.30
2022-12-18T12:26:39.003Z,76.22
2022-12-18T12:30:10.398Z,76.63
2022-12-18T12:33:45.024Z,76.10
2022-12-18T12:37:37.954Z,75.50
2022-12-18T12:41:02.493Z,76.37
2022-12-18T12:44:24.985Z,77.29
2022-12-18T12:47:40.340Z,77.37
2022-12-18T12:50:57.976Z,78.10
2022-12-18T12:54:08.030Z,78.10
2022-12-18T12:57:44.973Z,78.22
2022-12-18T13:01:10.054Z,77.66
2022-12-18T13:05:15.987Z,77.32
2022-12-18T13:08:30.954Z,77.43
2022-12-18T13:11:57.838Z,77.59
2022-12-18T13:15:29.994Z,77.67
2022-12-18T13:18:46.039Z,78.46
2022-12-18T13:21:56.912Z,78.41
2022-12-18T13:25:39.993Z,79.00
2022-12-18T13:28:54.971Z,78.95
2022-12-18T13:32:09.982Z,79.82
2022-12-18T13:35:25.017Z,80.37
2022-12-18T13:38:39.875Z,79.53
2022-12-18T13:42:14.951Z,79.67
2022-12-18T13:46:12.982Z,79.50
2022-12-18T13:49:15.246Z,80.18
2022-12-18T13:52:34.005Z,80.49
2022-12-18T13:55:46.263Z,79.80
2022-12-18T13:59:18.567Z,80.49
2022-12-18T14:02:36.083Z,80.18
2022-12-18T14:06:05.966Z,80.15
2022-12-18T14:09:27.133Z,78.58
2022-12-18T14:12:43.982Z,79.71
2022-12-18T14:15:55.962Z,78.67
2022-12-18T14:19:19.972Z,79.72
2022-12-18T14:22:28.990Z,80.42
2022-12-18T14:25:38.979Z,81.02
2022-12-18T14:28:54.991Z,81.27
2022-12-18T14:32:11.789Z,82.65
2022-12-18T14:35:28.057Z,83.47
2022-12-18T14:38:40.681Z,83.55
2022-12-18T14:41:48.953Z,83.66
2022-12-18T14:45:45.229Z,83.83
2022-12-18T14:48:54.448Z,84.48
2022-12-18T14:52:08.960Z,85.14
2022-12-18T14:55:22.147Z,85.28
2022-12-18T14:58:38.014Z,86.74
2022-12-18T15:02:21.213Z,87.56
2022-12-18T15:05:39.824Z,86.93
2022-12-18T15:08:56.125Z,87.79
2022-12-18T15:12:00.459Z,88.87
2022-12-18T15:15:43.039Z,89.56
2022-12-18T15:18:53.890Z,89.63
2022-12-18T15:22:10.397Z,90.75
2022-12-18T15:25:43.422Z,90.86
2022-12-18T15:29:01.431Z,91.55
2022-12-18T15:32:12.984Z,92.33
2022-12-18T15:35:31.301Z,92.61
2022-12-18T15:38:34.079Z,92.72
2022-12-18T15:41:50.306Z,93.16
2022-12-18T15:44:58.901Z,93.62
2022-12-18T15:48:08.404Z,94.13
2022-12-18T15:51:24.856Z,94.97
2022-12-18T15:54:34.131Z,94.92
2022-12-18T15:57:42.773Z,95.14
2022-12-18T16:00:58.515Z,95.52
2022-12-18T16:04:08.459Z,96.07
2022-12-18T16:07:30.527Z,96.75
2022-12-18T16:10:33.451Z,96.77
2022-12-18T16:13:50.585Z,97.39
2022-12-18T16:17:19.443Z,97.35
2022-12-18T16:20:23.962Z,97.53
2022-12-18T16:23:41.693Z,97.75
2022-12-18T16:26:45.167Z,98.08
2022-12-18T16:30:01.417Z,98.20
2022-12-18T16:33:18.433Z,98.47
2022-12-18T16:36:27.276Z,98.83
2022-12-18T16:39:45.399Z,99.27
2022-12-18T16:42:48.249Z,99.38
2022-12-18T16:46:06.459Z,99.60
2022-12-18T16:49:09.819Z,99.60
2022-12-18T16:52:27.398Z,99.72
2022-12-18T16:55:43.536Z,100.00
2022-12-18T16:59:04.396Z,100.00
2022-12-18T17:02:28.645Z,100.00
2022-12-18T17:05:31.755Z,100.00
2022-12-18T17:08:47.350Z,100.00
2022-12-18T17:12:04.513Z,100.00
2022-12-18T17:15:19.947Z,100.00
2022-12-18T17:18:37.443Z,100.00
2022-12-18T17:21:55.375Z,100.00
2022-12-18T17:25:12.452Z,100.00
2022-12-18T17:28:21.294Z,100.00
2022-12-18T17:31:40.275Z,100.00
2022-12-18T17:34:50.989Z,100.00
2022-12-18T17:38:05.953Z,100.00
2022-12-18T17:41:21.387Z,100.00
2022-12-18T17:44:30.350Z,100.00
2022-12-18T17:47:47.990Z,100.00
2022-12-18T17:51:11.309Z,100.00
2022-12-18T17:54:20.447Z,100.00
2022-12-18T17:57:35.924Z,100.00
2022-12-18T18:00:46.401Z,100.00
2022-12-18T18:03:55.937Z,100.00
2022-12-18T18:07:11.398Z,100.00
2022-12-18T18:10:20.077Z,100.00
2022-12-18T18:13:39.761Z,100.00
2022-12-18T18:17:04.951Z,100.00
2022-12-18T18:20:23.402Z,100.00
2022-12-18T18:23:33.652Z,100.00
2022-12-18T18:26:42.952Z,100.00
2022-12-18T18:29:59.143Z,100.00
2022-12-18T18:33:14.941Z,100.00
2022-12-18T18:36:18.188Z,100.00
2022-12-18T18:39:34.287Z,100.00
2022-12-18T18:42:50.254Z,100.00
2022-12-18T18:46:04.356Z,100.00
2022-12-18T18:49:14.263Z,100.00
2022-12-18T18:52:23.403Z,100.00
2022-12-18T18:55:42.287Z,100.00
2022-12-18T18:58:51.486Z,100.00
2022-12-18T19:02:00.724Z,100.00
2022-12-18T19:05:20.340Z,100.00
2022-12-18T19:08:24.998Z,100.00
2022-12-18T19:11:41.112Z,100.00
2022-12-18T19:14:51.367Z,100.00
2022-12-18T19:18:13.153Z,100.00
2022-12-18T19:21:15.850Z,100.00
2022-12-18T19:24:32.386Z,100.00
2022-12-18T19:27:41.108Z,100.00
2022-12-18T19:30:59.391Z,100.00
2022-12-18T19:34:09.760Z,100.00
2022-12-18T19:37:20.306Z,100.00
2022-12-18T19:40:36.207Z,100.00
2022-12-18T19:43:38.986Z,100.00
2022-12-18T19:46:58.203Z,100.00
2022-12-18T19:50:08.052Z,100.00
2022-12-18T19:53:24.443Z,100.00
2022-12-18T19:56:42.492Z,100.00
2022-12-18T19:59:51.908Z,100.00
2022-12-18T20:03:18.385Z,100.00
2022-12-18T20:06:37.948Z,100.00
2022-12-18T20:10:00.412Z,100.00
2022-12-18T20:13:19.402Z,100.00
2022-12-18T20:16:28.293Z,100.00
2022-12-18T20:19:50.343Z,100.00
2022-12-18T20:22:53.215Z,100.00
2022-12-18T20:26:09.161Z,100.00
2022-12-18T20:29:18.191Z,100.00
2022-12-18T20:32:37.110Z,100.00
2022-12-18T20:35:46.295Z,100.00
2022-12-18T20:39:04.026Z,100.00
2022-12-18T20:42:14.018Z,100.00
2022-12-18T20:45:22.765Z,100.00
2022-12-18T20:48:33.058Z,100.00
2022-12-18T20:51:50.288Z,100.00
2022-12-18T20:55:09.358Z,100.00
2022-12-18T20:58:25.296Z,100.00
2022-12-18T21:01:33.914Z,100.00
2022-12-18T21:04:50.263Z,100.00
2022-12-18T21:07:58.920Z,100.00
2022-12-18T21:11:17.577Z,100.00
2022-12-18T21:14:28.915Z,100.00
2022-12-18T21:17:51.161Z,100.00
2022-12-18T21:20:59.597Z,100.00
2022-12-18T21:24:16.020Z,100.00
2022-12-18T21:27:24.881Z,100.00
2022-12-18T21:30:39.948Z,100.00
2022-12-18T21:33:48.945Z,100.00
2022-12-18T21:37:01.884Z,100.00
2022-12-18T21:40:11.900Z,100.00
2022-12-18T21:43:26.926Z,100.00
2022-12-18T21:46:28.915Z,100.00
2022-12-18T21:49:43.878Z,100.00
2022-12-18T21:52:58.957Z,100.00
2022-12-18T21:56:02.172Z,100.00
2022-12-18T21:59:16.921Z,100.00
2022-12-18T22:02:27.085Z,100.00
2022-12-18T22:05:35.523Z,100.00
2022-12-18T22:08:44.907Z,100.00
2022-12-18T22:11:59.871Z,100.00
2022-12-18T22:15:21.373Z,100.00
2022-12-18T22:18:37.161Z,100.00
2022-12-18T22:21:54.865Z,100.00
2022-12-18T22:25:09.864Z,100.00
2022-12-18T22:28:24.893Z,100.00
2022-12-18T22:31:33.947Z,100.00
2022-12-18T22:34:49.886Z,100.00
2022-12-18T22:38:05.878Z,100.00
2022-12-18T22:41:14.899Z,100.00
2022-12-18T22:44:29.878Z,100.00
2022-12-18T22:47:39.161Z,100.00
2022-12-18T22:50:55.984Z,100.00
2022-12-18T22:54:07.568Z,100.00
2022-12-18T22:57:15.854Z,100.00
2022-12-18T23:00:30.902Z,100.00
2022-12-18T23:03:45.955Z,100.00
2022-12-18T23:06:48.045Z,100.00
2022-12-18T23:10:02.858Z,100.00
2022-12-18T23:13:17.889Z,100.00
2022-12-18T23:16:21.199Z,100.00
2022-12-18T23:19:48.577Z,100.00
2022-12-18T23:22:51.091Z,100.00
2022-12-18T23:26:11.858Z,100.00
2022-12-18T23:29:26.879Z,100.00
2022-12-18T23:32:34.864Z,100.00
2022-12-18T23:35:44.470Z,100.00
2022-12-18T23:39:01.860Z,100.00
2022-12-18T23:42:10.862Z,100.00
2022-12-18T23:45:22.484Z,100.00
2022-12-18T23:48:30.842Z,100.00
2022-12-18T23:51:45.881Z,100.00
2022-12-18T23:55:00.875Z,100.00
2022-12-18T23:58:27.871Z,100.00
